<?xml version="1.0" encoding="UTF-8" standalone="no" ?>
<gpx xmlns="http://www.topografix.com/GPX/1/1" xmlns:xsi="http://www.w3.org/2001/XMLSchema-instance" xsi:schemaLocation="http://www.topografix.com/GPX/1/1 http://www.topografix.com/GPX/1/1/gpx.xsd" version="1.1" creator="VisuGPX - https://www.visugpx.com">
  <metadata>
    <name>18 km</name>
    <desc><![CDATA[18 km 2015]]></desc>
  </metadata>
  <trk>
    <name><![CDATA[--Plabennec-- OR-4200222:Rando VTT 2015 - 18 Km]]></name>
    <trkseg>
      <trkpt lat="48.49912" lon="-4.43571">
        <ele>76</ele>
        <time>2015-11-23T23:27:17Z</time>
      </trkpt>
      <trkpt lat="48.49892" lon="-4.43461">
        <ele>75</ele>
        <time>2015-11-23T23:29:17Z</time>
      </trkpt>
      <trkpt lat="48.49923" lon="-4.43381">
        <ele>74</ele>
        <time>2015-11-23T23:31:17Z</time>
      </trkpt>
      <trkpt lat="48.49947" lon="-4.43403">
        <ele>74</ele>
        <time>2015-11-23T23:33:17Z</time>
      </trkpt>
      <trkpt lat="48.50034" lon="-4.43401">
        <ele>73</ele>
        <time>2015-11-23T23:35:17Z</time>
      </trkpt>
      <trkpt lat="48.50031" lon="-4.43375">
        <ele>72</ele>
        <time>2015-11-23T23:37:17Z</time>
      </trkpt>
      <trkpt lat="48.5016" lon="-4.43411">
        <ele>67</ele>
        <time>2015-11-23T23:39:17Z</time>
      </trkpt>
      <trkpt lat="48.50182" lon="-4.43382">
        <ele>66</ele>
        <time>2015-11-23T23:41:17Z</time>
      </trkpt>
      <trkpt lat="48.50223" lon="-4.43425">
        <ele>64</ele>
        <time>2015-11-23T23:43:17Z</time>
      </trkpt>
      <trkpt lat="48.50312" lon="-4.43456">
        <ele>65</ele>
        <time>2015-11-23T23:45:17Z</time>
      </trkpt>
      <trkpt lat="48.5037" lon="-4.43453">
        <ele>65</ele>
        <time>2015-11-23T23:47:17Z</time>
      </trkpt>
      <trkpt lat="48.50428" lon="-4.43486">
        <ele>65</ele>
        <time>2015-11-23T23:49:17Z</time>
      </trkpt>
      <trkpt lat="48.50464" lon="-4.43541">
        <ele>65</ele>
        <time>2015-11-23T23:51:17Z</time>
      </trkpt>
      <trkpt lat="48.5049" lon="-4.43502">
        <ele>64</ele>
        <time>2015-11-23T23:53:17Z</time>
      </trkpt>
      <trkpt lat="48.5056" lon="-4.43545">
        <ele>64</ele>
        <time>2015-11-23T23:55:17Z</time>
      </trkpt>
      <trkpt lat="48.50563" lon="-4.4357">
        <ele>64</ele>
        <time>2015-11-23T23:57:17Z</time>
      </trkpt>
      <trkpt lat="48.50599" lon="-4.436">
        <ele>63</ele>
        <time>2015-11-23T23:59:17Z</time>
      </trkpt>
      <trkpt lat="48.50634" lon="-4.43616">
        <ele>63</ele>
        <time>2015-11-24T00:01:17Z</time>
      </trkpt>
      <trkpt lat="48.50672" lon="-4.4365">
        <ele>61</ele>
        <time>2015-11-24T00:03:17Z</time>
      </trkpt>
      <trkpt lat="48.50664" lon="-4.43699">
        <ele>62</ele>
        <time>2015-11-24T00:05:17Z</time>
      </trkpt>
      <trkpt lat="48.50718" lon="-4.43748">
        <ele>61</ele>
        <time>2015-11-24T00:07:17Z</time>
      </trkpt>
      <trkpt lat="48.50771" lon="-4.43718">
        <ele>60</ele>
        <time>2015-11-24T00:09:17Z</time>
      </trkpt>
      <trkpt lat="48.5078" lon="-4.43661">
        <ele>61</ele>
        <time>2015-11-24T00:11:17Z</time>
      </trkpt>
      <trkpt lat="48.50726" lon="-4.4359">
        <ele>63</ele>
        <time>2015-11-24T00:13:17Z</time>
      </trkpt>
      <trkpt lat="48.50688" lon="-4.43496">
        <ele>68</ele>
        <time>2015-11-24T00:15:17Z</time>
      </trkpt>
      <trkpt lat="48.50699" lon="-4.43496">
        <ele>68</ele>
        <time>2015-11-24T00:17:17Z</time>
      </trkpt>
      <trkpt lat="48.50725" lon="-4.43502">
        <ele>69</ele>
        <time>2015-11-24T00:19:17Z</time>
      </trkpt>
      <trkpt lat="48.50756" lon="-4.43502">
        <ele>70</ele>
        <time>2015-11-24T00:21:17Z</time>
      </trkpt>
      <trkpt lat="48.50788" lon="-4.43509">
        <ele>72</ele>
        <time>2015-11-24T00:23:17Z</time>
      </trkpt>
      <trkpt lat="48.50823" lon="-4.43509">
        <ele>74</ele>
        <time>2015-11-24T00:25:17Z</time>
      </trkpt>
      <trkpt lat="48.5087" lon="-4.43504">
        <ele>75</ele>
        <time>2015-11-24T00:27:17Z</time>
      </trkpt>
      <trkpt lat="48.509" lon="-4.43497">
        <ele>75</ele>
        <time>2015-11-24T00:29:17Z</time>
      </trkpt>
      <trkpt lat="48.50891" lon="-4.4347">
        <ele>76</ele>
        <time>2015-11-24T00:31:17Z</time>
      </trkpt>
      <trkpt lat="48.50916" lon="-4.43465">
        <ele>76</ele>
        <time>2015-11-24T00:33:17Z</time>
      </trkpt>
      <trkpt lat="48.5103" lon="-4.43491">
        <ele>74</ele>
        <time>2015-11-24T00:35:17Z</time>
      </trkpt>
      <trkpt lat="48.51076" lon="-4.43493">
        <ele>73</ele>
        <time>2015-11-24T00:37:17Z</time>
      </trkpt>
      <trkpt lat="48.51189" lon="-4.43462">
        <ele>74</ele>
        <time>2015-11-24T00:39:17Z</time>
      </trkpt>
      <trkpt lat="48.51239" lon="-4.43462">
        <ele>72</ele>
        <time>2015-11-24T00:41:17Z</time>
      </trkpt>
      <trkpt lat="48.51324" lon="-4.43487">
        <ele>66</ele>
        <time>2015-11-24T00:43:17Z</time>
      </trkpt>
      <trkpt lat="48.51404" lon="-4.43539">
        <ele>62</ele>
        <time>2015-11-24T00:45:17Z</time>
      </trkpt>
      <trkpt lat="48.51448" lon="-4.43609">
        <ele>58</ele>
        <time>2015-11-24T00:47:17Z</time>
      </trkpt>
      <trkpt lat="48.51491" lon="-4.43732">
        <ele>52</ele>
        <time>2015-11-24T00:49:17Z</time>
      </trkpt>
      <trkpt lat="48.51671" lon="-4.43604">
        <ele>45</ele>
        <time>2015-11-24T00:51:17Z</time>
      </trkpt>
      <trkpt lat="48.51845" lon="-4.43563">
        <ele>45</ele>
        <time>2015-11-24T00:53:17Z</time>
      </trkpt>
      <trkpt lat="48.5184" lon="-4.43514">
        <ele>46</ele>
        <time>2015-11-24T00:55:17Z</time>
      </trkpt>
      <trkpt lat="48.51893" lon="-4.4353">
        <ele>45</ele>
        <time>2015-11-24T00:57:17Z</time>
      </trkpt>
      <trkpt lat="48.51948" lon="-4.43463">
        <ele>46</ele>
        <time>2015-11-24T00:59:17Z</time>
      </trkpt>
      <trkpt lat="48.51945" lon="-4.43304">
        <ele>48</ele>
        <time>2015-11-24T01:01:17Z</time>
      </trkpt>
      <trkpt lat="48.51984" lon="-4.43257">
        <ele>48</ele>
        <time>2015-11-24T01:03:17Z</time>
      </trkpt>
      <trkpt lat="48.52063" lon="-4.43265">
        <ele>47</ele>
        <time>2015-11-24T01:05:17Z</time>
      </trkpt>
      <trkpt lat="48.52175" lon="-4.43165">
        <ele>47</ele>
        <time>2015-11-24T01:07:17Z</time>
      </trkpt>
      <trkpt lat="48.52314" lon="-4.43174">
        <ele>46</ele>
        <time>2015-11-24T01:09:17Z</time>
      </trkpt>
      <trkpt lat="48.52436" lon="-4.43277">
        <ele>45</ele>
        <time>2015-11-24T01:11:17Z</time>
      </trkpt>
      <trkpt lat="48.52536" lon="-4.4335">
        <ele>45</ele>
        <time>2015-11-24T01:13:17Z</time>
      </trkpt>
      <trkpt lat="48.52595" lon="-4.43328">
        <ele>46</ele>
        <time>2015-11-24T01:15:17Z</time>
      </trkpt>
      <trkpt lat="48.52652" lon="-4.43126">
        <ele>53</ele>
        <time>2015-11-24T01:17:17Z</time>
      </trkpt>
      <trkpt lat="48.52576" lon="-4.42774">
        <ele>57</ele>
        <time>2015-11-24T01:19:17Z</time>
      </trkpt>
      <trkpt lat="48.52533" lon="-4.42697">
        <ele>59</ele>
        <time>2015-11-24T01:21:17Z</time>
      </trkpt>
      <trkpt lat="48.52445" lon="-4.42669">
        <ele>59</ele>
        <time>2015-11-24T01:23:17Z</time>
      </trkpt>
      <trkpt lat="48.52403" lon="-4.42595">
        <ele>58</ele>
        <time>2015-11-24T01:25:17Z</time>
      </trkpt>
      <trkpt lat="48.52376" lon="-4.42279">
        <ele>53</ele>
        <time>2015-11-24T01:27:17Z</time>
      </trkpt>
      <trkpt lat="48.52313" lon="-4.42317">
        <ele>54</ele>
        <time>2015-11-24T01:29:17Z</time>
      </trkpt>
      <trkpt lat="48.52353" lon="-4.42053">
        <ele>48</ele>
        <time>2015-11-24T01:31:17Z</time>
      </trkpt>
      <trkpt lat="48.52267" lon="-4.41894">
        <ele>48</ele>
        <time>2015-11-24T01:33:17Z</time>
      </trkpt>
      <trkpt lat="48.52218" lon="-4.41837">
        <ele>50</ele>
        <time>2015-11-24T01:35:17Z</time>
      </trkpt>
      <trkpt lat="48.5222" lon="-4.41744">
        <ele>53</ele>
        <time>2015-11-24T01:37:17Z</time>
      </trkpt>
      <trkpt lat="48.52285" lon="-4.41611">
        <ele>53</ele>
        <time>2015-11-24T01:39:17Z</time>
      </trkpt>
      <trkpt lat="48.52302" lon="-4.41257">
        <ele>49</ele>
        <time>2015-11-24T01:41:17Z</time>
      </trkpt>
      <trkpt lat="48.52355" lon="-4.41091">
        <ele>48</ele>
        <time>2015-11-24T01:43:17Z</time>
      </trkpt>
      <trkpt lat="48.52388" lon="-4.40743">
        <ele>48</ele>
        <time>2015-11-24T01:45:17Z</time>
      </trkpt>
      <trkpt lat="48.52502" lon="-4.40358">
        <ele>48</ele>
        <time>2015-11-24T01:47:17Z</time>
      </trkpt>
      <trkpt lat="48.52476" lon="-4.40306">
        <ele>48</ele>
        <time>2015-11-24T01:49:17Z</time>
      </trkpt>
      <trkpt lat="48.52513" lon="-4.40202">
        <ele>48</ele>
        <time>2015-11-24T01:51:17Z</time>
      </trkpt>
      <trkpt lat="48.52578" lon="-4.40219">
        <ele>53</ele>
        <time>2015-11-24T01:53:17Z</time>
      </trkpt>
      <trkpt lat="48.52632" lon="-4.40026">
        <ele>56</ele>
        <time>2015-11-24T01:55:17Z</time>
      </trkpt>
      <trkpt lat="48.52681" lon="-4.39815">
        <ele>55</ele>
        <time>2015-11-24T01:57:17Z</time>
      </trkpt>
      <trkpt lat="48.52786" lon="-4.39549">
        <ele>57</ele>
        <time>2015-11-24T01:59:17Z</time>
      </trkpt>
      <trkpt lat="48.5299" lon="-4.39768">
        <ele>63</ele>
        <time>2015-11-24T02:01:17Z</time>
      </trkpt>
      <trkpt lat="48.53073" lon="-4.39472">
        <ele>61</ele>
        <time>2015-11-24T02:03:17Z</time>
      </trkpt>
      <trkpt lat="48.53329" lon="-4.39691">
        <ele>56</ele>
        <time>2015-11-24T02:05:17Z</time>
      </trkpt>
      <trkpt lat="48.53326" lon="-4.3976">
        <ele>55</ele>
        <time>2015-11-24T02:07:17Z</time>
      </trkpt>
      <trkpt lat="48.53385" lon="-4.39807">
        <ele>55</ele>
        <time>2015-11-24T02:09:17Z</time>
      </trkpt>
      <trkpt lat="48.53562" lon="-4.39923">
        <ele>52</ele>
        <time>2015-11-24T02:11:17Z</time>
      </trkpt>
      <trkpt lat="48.53482" lon="-4.40365">
        <ele>50</ele>
        <time>2015-11-24T02:13:17Z</time>
      </trkpt>
      <trkpt lat="48.53442" lon="-4.40519">
        <ele>50</ele>
        <time>2015-11-24T02:15:17Z</time>
      </trkpt>
      <trkpt lat="48.53317" lon="-4.40674">
        <ele>51</ele>
        <time>2015-11-24T02:17:17Z</time>
      </trkpt>
      <trkpt lat="48.53135" lon="-4.40652">
        <ele>56</ele>
        <time>2015-11-24T02:19:17Z</time>
      </trkpt>
      <trkpt lat="48.53161" lon="-4.40936">
        <ele>55</ele>
        <time>2015-11-24T02:21:17Z</time>
      </trkpt>
      <trkpt lat="48.53169" lon="-4.41326">
        <ele>50</ele>
        <time>2015-11-24T02:23:17Z</time>
      </trkpt>
      <trkpt lat="48.53258" lon="-4.41412">
        <ele>48</ele>
        <time>2015-11-24T02:25:17Z</time>
      </trkpt>
      <trkpt lat="48.53312" lon="-4.41648">
        <ele>47</ele>
        <time>2015-11-24T02:27:17Z</time>
      </trkpt>
      <trkpt lat="48.53445" lon="-4.423">
        <ele>43</ele>
        <time>2015-11-24T02:29:17Z</time>
      </trkpt>
      <trkpt lat="48.53528" lon="-4.42227">
        <ele>45</ele>
        <time>2015-11-24T02:31:17Z</time>
      </trkpt>
      <trkpt lat="48.53576" lon="-4.42408">
        <ele>44</ele>
        <time>2015-11-24T02:33:17Z</time>
      </trkpt>
      <trkpt lat="48.53536" lon="-4.42519">
        <ele>42</ele>
        <time>2015-11-24T02:35:17Z</time>
      </trkpt>
      <trkpt lat="48.53593" lon="-4.42742">
        <ele>45</ele>
        <time>2015-11-24T02:37:17Z</time>
      </trkpt>
      <trkpt lat="48.53511" lon="-4.42854">
        <ele>38</ele>
        <time>2015-11-24T02:39:17Z</time>
      </trkpt>
      <trkpt lat="48.53439" lon="-4.42995">
        <ele>39</ele>
        <time>2015-11-24T02:41:17Z</time>
      </trkpt>
      <trkpt lat="48.53448" lon="-4.43146">
        <ele>42</ele>
        <time>2015-11-24T02:43:17Z</time>
      </trkpt>
      <trkpt lat="48.53411" lon="-4.43425">
        <ele>46</ele>
        <time>2015-11-24T02:45:17Z</time>
      </trkpt>
      <trkpt lat="48.52883" lon="-4.43975">
        <ele>58</ele>
        <time>2015-11-24T02:47:17Z</time>
      </trkpt>
      <trkpt lat="48.52979" lon="-4.44472">
        <ele>62</ele>
        <time>2015-11-24T02:49:17Z</time>
      </trkpt>
      <trkpt lat="48.5291" lon="-4.44475">
        <ele>62</ele>
        <time>2015-11-24T02:51:17Z</time>
      </trkpt>
      <trkpt lat="48.52877" lon="-4.44509">
        <ele>60</ele>
        <time>2015-11-24T02:53:17Z</time>
      </trkpt>
      <trkpt lat="48.52775" lon="-4.44527">
        <ele>58</ele>
        <time>2015-11-24T02:55:17Z</time>
      </trkpt>
      <trkpt lat="48.52742" lon="-4.44507">
        <ele>57</ele>
        <time>2015-11-24T02:57:17Z</time>
      </trkpt>
      <trkpt lat="48.52698" lon="-4.44505">
        <ele>56</ele>
        <time>2015-11-24T02:59:17Z</time>
      </trkpt>
      <trkpt lat="48.52665" lon="-4.44689">
        <ele>57</ele>
        <time>2015-11-24T03:01:17Z</time>
      </trkpt>
      <trkpt lat="48.52579" lon="-4.44713">
        <ele>57</ele>
        <time>2015-11-24T03:03:17Z</time>
      </trkpt>
      <trkpt lat="48.52591" lon="-4.4495">
        <ele>63</ele>
        <time>2015-11-24T03:05:17Z</time>
      </trkpt>
      <trkpt lat="48.52446" lon="-4.45032">
        <ele>66</ele>
        <time>2015-11-24T03:07:17Z</time>
      </trkpt>
      <trkpt lat="48.52465" lon="-4.45142">
        <ele>65</ele>
        <time>2015-11-24T03:09:17Z</time>
      </trkpt>
      <trkpt lat="48.52184" lon="-4.45164">
        <ele>59</ele>
        <time>2015-11-24T03:11:17Z</time>
      </trkpt>
      <trkpt lat="48.51989" lon="-4.45158">
        <ele>62</ele>
        <time>2015-11-24T03:13:17Z</time>
      </trkpt>
      <trkpt lat="48.51823" lon="-4.45203">
        <ele>62</ele>
        <time>2015-11-24T03:15:17Z</time>
      </trkpt>
      <trkpt lat="48.51588" lon="-4.45432">
        <ele>57</ele>
        <time>2015-11-24T03:17:17Z</time>
      </trkpt>
      <trkpt lat="48.51266" lon="-4.45501">
        <ele>64</ele>
        <time>2015-11-24T03:19:17Z</time>
      </trkpt>
      <trkpt lat="48.50814" lon="-4.44978">
        <ele>66</ele>
        <time>2015-11-24T03:21:17Z</time>
      </trkpt>
      <trkpt lat="48.50549" lon="-4.44799">
        <ele>69</ele>
        <time>2015-11-24T03:23:17Z</time>
      </trkpt>
      <trkpt lat="48.5042" lon="-4.44641">
        <ele>75</ele>
        <time>2015-11-24T03:25:17Z</time>
      </trkpt>
      <trkpt lat="48.50305" lon="-4.44467">
        <ele>82</ele>
        <time>2015-11-24T03:27:17Z</time>
      </trkpt>
      <trkpt lat="48.50203" lon="-4.44179">
        <ele>77</ele>
        <time>2015-11-24T03:29:17Z</time>
      </trkpt>
      <trkpt lat="48.50155" lon="-4.44046">
        <ele>77</ele>
        <time>2015-11-24T03:31:17Z</time>
      </trkpt>
      <trkpt lat="48.50175" lon="-4.43759">
        <ele>71</ele>
        <time>2015-11-24T03:33:17Z</time>
      </trkpt>
      <trkpt lat="48.49956" lon="-4.43785">
        <ele>79</ele>
        <time>2015-11-24T03:35:17Z</time>
      </trkpt>
    </trkseg>
  </trk>
</gpx>